sensor_id;sensor_type;location;lat;lon;timestamp;temperature;humidity
1175;DHT22;576;48.418;10.074;2023-04-26T00:00:06;22.80;58.10
1175;DHT22;576;48.418;10.074;2023-04-26T00:02:36;22.90;58.00
1175;DHT22;576;48.418;10.074;2023-04-26T00:05:05;22.90;58.00
1175;DHT22;576;48.418;10.074;2023-04-26T00:07:35;22.80;58.00
1175;DHT22;576;48.418;10.074;2023-04-26T00:10:07;22.80;58.00
1175;DHT22;576;48.418;10.074;2023-04-26T00:12:36;22.80;58.00
1175;DHT22;576;48.418;10.074;2023-04-26T00:15:05;22.80;58.00
1175;DHT22;576;48.418;10.074;2023-04-26T00:17:33;22.80;57.90
1175;DHT22;576;48.418;10.074;2023-04-26T00:20:02;22.80;57.90
1175;DHT22;576;48.418;10.074;2023-04-26T00:22:34;22.80;57.90
1175;DHT22;576;48.418;10.074;2023-04-26T00:25:02;22.80;57.90
1175;DHT22;576;48.418;10.074;2023-04-26T00:27:32;22.80;57.80
1175;DHT22;576;48.418;10.074;2023-04-26T00:30:00;22.80;57.80
1175;DHT22;576;48.418;10.074;2023-04-26T00:32:29;22.80;57.80
1175;DHT22;576;48.418;10.074;2023-04-26T00:34:58;22.80;57.80
1175;DHT22;576;48.418;10.074;2023-04-26T00:37:26;22.80;57.80
1175;DHT22;576;48.418;10.074;2023-04-26T00:39:54;22.80;57.80
1175;DHT22;576;48.418;10.074;2023-04-26T00:42:23;22.80;57.80
1175;DHT22;576;48.418;10.074;2023-04-26T00:44:52;22.70;57.80
1175;DHT22;576;48.418;10.074;2023-04-26T00:47:24;22.70;57.70
1175;DHT22;576;48.418;10.074;2023-04-26T00:49:52;22.70;57.70
1175;DHT22;576;48.418;10.074;2023-04-26T00:52:21;22.70;57.70
1175;DHT22;576;48.418;10.074;2023-04-26T00:54:49;22.70;57.70
1175;DHT22;576;48.418;10.074;2023-04-26T00:57:18;22.70;57.70
1175;DHT22;576;48.418;10.074;2023-04-26T00:59:46;22.70;57.60
1175;DHT22;576;48.418;10.074;2023-04-26T01:02:17;22.70;57.70
1175;DHT22;576;48.418;10.074;2023-04-26T01:04:45;22.70;57.70
1175;DHT22;576;48.418;10.074;2023-04-26T01:07:13;22.70;57.60
1175;DHT22;576;48.418;10.074;2023-04-26T01:09:43;22.70;57.60
1175;DHT22;576;48.418;10.074;2023-04-26T01:12:12;22.70;57.60
1175;DHT22;576;48.418;10.074;2023-04-26T01:14:41;22.70;57.60
1175;DHT22;576;48.418;10.074;2023-04-26T01:17:09;22.70;57.60
1175;DHT22;576;48.418;10.074;2023-04-26T01:19:47;22.70;57.60
1175;DHT22;576;48.418;10.074;2023-04-26T01:22:15;22.70;57.60
1175;DHT22;576;48.418;10.074;2023-04-26T01:24:49;22.60;57.60
1175;DHT22;576;48.418;10.074;2023-04-26T01:27:17;22.60;57.60
1175;DHT22;576;48.418;10.074;2023-04-26T01:29:46;22.60;57.60
1175;DHT22;576;48.418;10.074;2023-04-26T01:32:14;22.60;57.60
1175;DHT22;576;48.418;10.074;2023-04-26T01:34:43;22.60;57.60
1175;DHT22;576;48.418;10.074;2023-04-26T01:37:11;22.60;57.70
1175;DHT22;576;48.418;10.074;2023-04-26T01:39:39;22.60;57.70
1175;DHT22;576;48.418;10.074;2023-04-26T01:42:09;22.60;57.70
1175;DHT22;576;48.418;10.074;2023-04-26T01:44:37;22.60;57.70
1175;DHT22;576;48.418;10.074;2023-04-26T01:47:05;22.60;57.70
1175;DHT22;576;48.418;10.074;2023-04-26T01:49:34;22.60;57.70
1175;DHT22;576;48.418;10.074;2023-04-26T01:52:02;22.60;57.60
1175;DHT22;576;48.418;10.074;2023-04-26T01:54:30;22.60;57.60
1175;DHT22;576;48.418;10.074;2023-04-26T01:56:59;22.60;57.60
1175;DHT22;576;48.418;10.074;2023-04-26T01:59:29;22.50;57.60
1175;DHT22;576;48.418;10.074;2023-04-26T02:01:58;22.50;57.60
1175;DHT22;576;48.418;10.074;2023-04-26T02:04:26;22.50;57.60
1175;DHT22;576;48.418;10.074;2023-04-26T02:06:55;22.50;57.60
1175;DHT22;576;48.418;10.074;2023-04-26T02:09:23;22.50;57.60
1175;DHT22;576;48.418;10.074;2023-04-26T02:11:51;22.50;57.60
1175;DHT22;576;48.418;10.074;2023-04-26T02:14:19;22.50;57.60
1175;DHT22;576;48.418;10.074;2023-04-26T02:16:49;22.50;57.60
1175;DHT22;576;48.418;10.074;2023-04-26T02:19:18;22.50;57.60
1175;DHT22;576;48.418;10.074;2023-04-26T02:21:51;22.50;57.60
1175;DHT22;576;48.418;10.074;2023-04-26T02:24:19;22.50;57.60
1175;DHT22;576;48.418;10.074;2023-04-26T02:26:48;22.50;57.50
1175;DHT22;576;48.418;10.074;2023-04-26T02:29:16;22.50;57.50
1175;DHT22;576;48.418;10.074;2023-04-26T02:31:48;22.50;57.50
1175;DHT22;576;48.418;10.074;2023-04-26T02:34:17;22.50;57.50
1175;DHT22;576;48.418;10.074;2023-04-26T02:36:45;22.40;57.50
1175;DHT22;576;48.418;10.074;2023-04-26T02:39:14;22.40;57.50
1175;DHT22;576;48.418;10.074;2023-04-26T02:41:42;22.40;57.50
1175;DHT22;576;48.418;10.074;2023-04-26T02:44:10;22.40;57.50
1175;DHT22;576;48.418;10.074;2023-04-26T02:46:39;22.40;57.40
1175;DHT22;576;48.418;10.074;2023-04-26T02:49:09;22.40;57.40
1175;DHT22;576;48.418;10.074;2023-04-26T02:51:37;22.40;57.40
1175;DHT22;576;48.418;10.074;2023-04-26T02:54:05;22.40;57.40
1175;DHT22;576;48.418;10.074;2023-04-26T02:56:34;22.40;57.40
1175;DHT22;576;48.418;10.074;2023-04-26T02:59:02;22.40;57.40
1175;DHT22;576;48.418;10.074;2023-04-26T03:01:30;22.40;57.40
1175;DHT22;576;48.418;10.074;2023-04-26T03:03:59;22.40;57.40
1175;DHT22;576;48.418;10.074;2023-04-26T03:06:28;22.40;57.40
1175;DHT22;576;48.418;10.074;2023-04-26T03:08:57;22.40;57.30
1175;DHT22;576;48.418;10.074;2023-04-26T03:11:25;22.40;57.30
1175;DHT22;576;48.418;10.074;2023-04-26T03:13:54;22.30;57.30
1175;DHT22;576;48.418;10.074;2023-04-26T03:16:22;22.30;57.30
1175;DHT22;576;48.418;10.074;2023-04-26T03:18:50;22.30;57.30
1175;DHT22;576;48.418;10.074;2023-04-26T03:21:20;22.30;57.30
1175;DHT22;576;48.418;10.074;2023-04-26T03:23:49;22.30;57.30
1175;DHT22;576;48.418;10.074;2023-04-26T03:26:19;22.30;57.30
1175;DHT22;576;48.418;10.074;2023-04-26T03:28:48;22.30;57.30
1175;DHT22;576;48.418;10.074;2023-04-26T03:31:16;22.30;57.30
1175;DHT22;576;48.418;10.074;2023-04-26T03:33:45;22.30;57.20
1175;DHT22;576;48.418;10.074;2023-04-26T03:36:13;22.30;57.20
1175;DHT22;576;48.418;10.074;2023-04-26T03:38:41;22.30;57.20
1175;DHT22;576;48.418;10.074;2023-04-26T03:41:12;22.30;57.20
1175;DHT22;576;48.418;10.074;2023-04-26T03:43:40;22.20;57.20
1175;DHT22;576;48.418;10.074;2023-04-26T03:46:08;22.20;57.20
1175;DHT22;576;48.418;10.074;2023-04-26T03:48:36;22.20;57.20
1175;DHT22;576;48.418;10.074;2023-04-26T03:51:05;22.30;57.30
1175;DHT22;576;48.418;10.074;2023-04-26T03:53:33;22.30;57.40
1175;DHT22;576;48.418;10.074;2023-04-26T03:56:02;22.30;57.40
1175;DHT22;576;48.418;10.074;2023-04-26T03:58:33;22.30;57.40
1175;DHT22;576;48.418;10.074;2023-04-26T04:01:02;22.30;57.40
1175;DHT22;576;48.418;10.074;2023-04-26T04:03:30;22.40;57.40
1175;DHT22;576;48.418;10.074;2023-04-26T04:05:59;22.40;57.40
1175;DHT22;576;48.418;10.074;2023-04-26T04:08:28;22.40;57.40
1175;DHT22;576;48.418;10.074;2023-04-26T04:10:56;22.50;57.40
1175;DHT22;576;48.418;10.074;2023-04-26T04:13:24;22.50;57.40
1175;DHT22;576;48.418;10.074;2023-04-26T04:15:54;22.50;57.40
1175;DHT22;576;48.418;10.074;2023-04-26T04:18:22;22.50;57.30
1175;DHT22;576;48.418;10.074;2023-04-26T04:20:51;22.50;57.20
1175;DHT22;576;48.418;10.074;2023-04-26T04:23:19;22.60;57.20
1175;DHT22;576;48.418;10.074;2023-04-26T04:25:47;22.60;57.00
1175;DHT22;576;48.418;10.074;2023-04-26T04:28:17;22.60;56.90
1175;DHT22;576;48.418;10.074;2023-04-26T04:30:45;22.60;56.90
1175;DHT22;576;48.418;10.074;2023-04-26T04:33:15;22.60;56.80
1175;DHT22;576;48.418;10.074;2023-04-26T04:35:44;22.70;56.80
1175;DHT22;576;48.418;10.074;2023-04-26T04:38:12;22.60;56.70
1175;DHT22;576;48.418;10.074;2023-04-26T04:40:40;22.60;56.70
1175;DHT22;576;48.418;10.074;2023-04-26T04:43:09;22.60;56.70
1175;DHT22;576;48.418;10.074;2023-04-26T04:45:38;22.60;56.70
1175;DHT22;576;48.418;10.074;2023-04-26T04:48:06;22.60;56.80
1175;DHT22;576;48.418;10.074;2023-04-26T04:50:37;22.60;56.80
1175;DHT22;576;48.418;10.074;2023-04-26T04:53:05;22.60;56.80
1175;DHT22;576;48.418;10.074;2023-04-26T04:55:35;22.60;56.70
1175;DHT22;576;48.418;10.074;2023-04-26T04:58:03;22.50;56.80
1175;DHT22;576;48.418;10.074;2023-04-26T05:00:33;22.50;56.80
1175;DHT22;576;48.418;10.074;2023-04-26T05:03:08;22.50;56.90
1175;DHT22;576;48.418;10.074;2023-04-26T05:05:38;22.50;57.00
1175;DHT22;576;48.418;10.074;2023-04-26T05:08:07;22.50;57.10
1175;DHT22;576;48.418;10.074;2023-04-26T05:10:35;22.50;57.30
1175;DHT22;576;48.418;10.074;2023-04-26T05:13:04;22.50;57.40
1175;DHT22;576;48.418;10.074;2023-04-26T05:15:33;22.50;57.50
1175;DHT22;576;48.418;10.074;2023-04-26T05:18:01;22.50;57.60
1175;DHT22;576;48.418;10.074;2023-04-26T05:20:30;22.50;57.60
1175;DHT22;576;48.418;10.074;2023-04-26T05:23:00;22.40;57.70
1175;DHT22;576;48.418;10.074;2023-04-26T05:25:28;22.40;57.70
1175;DHT22;576;48.418;10.074;2023-04-26T05:28:04;22.40;57.70
1175;DHT22;576;48.418;10.074;2023-04-26T05:30:50;22.40;57.80
1175;DHT22;576;48.418;10.074;2023-04-26T05:33:25;22.40;57.80
1175;DHT22;576;48.418;10.074;2023-04-26T05:35:55;22.50;57.90
1175;DHT22;576;48.418;10.074;2023-04-26T05:38:25;22.40;57.90
1175;DHT22;576;48.418;10.074;2023-04-26T05:40:54;22.50;57.90
1175;DHT22;576;48.418;10.074;2023-04-26T05:43:22;22.50;57.90
1175;DHT22;576;48.418;10.074;2023-04-26T05:45:51;22.50;57.90
1175;DHT22;576;48.418;10.074;2023-04-26T05:48:20;22.50;57.80
1175;DHT22;576;48.418;10.074;2023-04-26T05:50:49;22.60;57.80
1175;DHT22;576;48.418;10.074;2023-04-26T05:53:18;22.60;57.80
1175;DHT22;576;48.418;10.074;2023-04-26T05:55:48;22.60;57.70
1175;DHT22;576;48.418;10.074;2023-04-26T05:58:16;22.60;57.70
1175;DHT22;576;48.418;10.074;2023-04-26T06:00:45;22.60;57.60
1175;DHT22;576;48.418;10.074;2023-04-26T06:03:13;22.60;57.60
1175;DHT22;576;48.418;10.074;2023-04-26T06:05:42;22.60;57.50
1175;DHT22;576;48.418;10.074;2023-04-26T06:08:10;22.60;57.50
1175;DHT22;576;48.418;10.074;2023-04-26T06:10:39;22.60;57.40
1175;DHT22;576;48.418;10.074;2023-04-26T06:13:08;22.60;57.40
1175;DHT22;576;48.418;10.074;2023-04-26T06:15:37;22.70;57.30
1175;DHT22;576;48.418;10.074;2023-04-26T06:18:05;22.70;57.20
1175;DHT22;576;48.418;10.074;2023-04-26T06:20:33;22.70;57.10
1175;DHT22;576;48.418;10.074;2023-04-26T06:23:04;22.70;57.10
1175;DHT22;576;48.418;10.074;2023-04-26T06:25:33;22.70;57.00
1175;DHT22;576;48.418;10.074;2023-04-26T06:28:03;22.70;57.00
1175;DHT22;576;48.418;10.074;2023-04-26T06:30:33;22.70;57.00
1175;DHT22;576;48.418;10.074;2023-04-26T06:33:02;22.70;57.00
1175;DHT22;576;48.418;10.074;2023-04-26T06:35:31;22.60;57.00
1175;DHT22;576;48.418;10.074;2023-04-26T06:38:01;22.60;56.90
1175;DHT22;576;48.418;10.074;2023-04-26T06:40:29;22.60;56.90
1175;DHT22;576;48.418;10.074;2023-04-26T06:42:57;22.60;56.90
1175;DHT22;576;48.418;10.074;2023-04-26T06:45:59;22.60;56.90
1175;DHT22;576;48.418;10.074;2023-04-26T06:48:27;22.60;56.90
1175;DHT22;576;48.418;10.074;2023-04-26T06:50:55;22.70;56.90
1175;DHT22;576;48.418;10.074;2023-04-26T06:53:23;22.70;56.90
1175;DHT22;576;48.418;10.074;2023-04-26T06:55:51;22.70;56.90
1175;DHT22;576;48.418;10.074;2023-04-26T06:58:23;22.70;56.90
1175;DHT22;576;48.418;10.074;2023-04-26T07:00:51;22.70;56.90
1175;DHT22;576;48.418;10.074;2023-04-26T07:03:20;22.70;56.90
1175;DHT22;576;48.418;10.074;2023-04-26T07:05:49;22.70;56.90
1175;DHT22;576;48.418;10.074;2023-04-26T07:08:17;22.70;56.80
1175;DHT22;576;48.418;10.074;2023-04-26T07:10:46;22.80;56.80
1175;DHT22;576;48.418;10.074;2023-04-26T07:13:14;22.80;56.70
1175;DHT22;576;48.418;10.074;2023-04-26T07:15:42;22.80;56.70
1175;DHT22;576;48.418;10.074;2023-04-26T07:18:11;22.80;56.80
1175;DHT22;576;48.418;10.074;2023-04-26T07:20:40;22.80;57.60
1175;DHT22;576;48.418;10.074;2023-04-26T07:23:09;22.90;57.80
1175;DHT22;576;48.418;10.074;2023-04-26T07:25:37;22.90;57.90
1175;DHT22;576;48.418;10.074;2023-04-26T07:28:05;22.90;58.20
1175;DHT22;576;48.418;10.074;2023-04-26T07:30:34;22.90;58.20
1175;DHT22;576;48.418;10.074;2023-04-26T07:33:02;23.00;58.20
1175;DHT22;576;48.418;10.074;2023-04-26T07:35:31;23.00;58.10
1175;DHT22;576;48.418;10.074;2023-04-26T07:38:02;23.00;58.00
1175;DHT22;576;48.418;10.074;2023-04-26T07:40:30;23.00;58.00
1175;DHT22;576;48.418;10.074;2023-04-26T07:42:58;23.00;58.00
1175;DHT22;576;48.418;10.074;2023-04-26T07:45:27;23.10;58.00
1175;DHT22;576;48.418;10.074;2023-04-26T07:47:56;23.10;57.80
1175;DHT22;576;48.418;10.074;2023-04-26T07:50:24;23.10;57.70
1175;DHT22;576;48.418;10.074;2023-04-26T07:52:52;23.10;57.60
1175;DHT22;576;48.418;10.074;2023-04-26T07:55:22;23.10;57.50
1175;DHT22;576;48.418;10.074;2023-04-26T07:57:50;23.10;57.50
1175;DHT22;576;48.418;10.074;2023-04-26T08:00:19;23.10;57.40
1175;DHT22;576;48.418;10.074;2023-04-26T08:02:49;23.20;57.30
1175;DHT22;576;48.418;10.074;2023-04-26T08:05:17;23.20;57.30
1175;DHT22;576;48.418;10.074;2023-04-26T08:07:46;23.20;57.20
1175;DHT22;576;48.418;10.074;2023-04-26T08:10:14;23.20;57.20
1175;DHT22;576;48.418;10.074;2023-04-26T08:12:44;23.20;57.20
1175;DHT22;576;48.418;10.074;2023-04-26T08:15:12;23.30;57.20
1175;DHT22;576;48.418;10.074;2023-04-26T08:17:40;23.30;57.10
1175;DHT22;576;48.418;10.074;2023-04-26T08:20:09;23.30;57.00
1175;DHT22;576;48.418;10.074;2023-04-26T08:22:38;23.30;56.90
1175;DHT22;576;48.418;10.074;2023-04-26T08:25:07;23.40;56.80
1175;DHT22;576;48.418;10.074;2023-04-26T08:27:35;23.40;56.80
1175;DHT22;576;48.418;10.074;2023-04-26T08:30:06;23.40;56.70
1175;DHT22;576;48.418;10.074;2023-04-26T08:32:34;23.50;56.70
1175;DHT22;576;48.418;10.074;2023-04-26T08:35:03;23.50;56.60
1175;DHT22;576;48.418;10.074;2023-04-26T08:37:31;23.50;56.50
1175;DHT22;576;48.418;10.074;2023-04-26T08:39:59;23.50;56.50
1175;DHT22;576;48.418;10.074;2023-04-26T08:42:28;23.50;56.40
1175;DHT22;576;48.418;10.074;2023-04-26T08:45:00;23.60;56.40
1175;DHT22;576;48.418;10.074;2023-04-26T08:47:39;23.60;56.40
1175;DHT22;576;48.418;10.074;2023-04-26T08:50:10;23.60;56.30
1175;DHT22;576;48.418;10.074;2023-04-26T08:52:41;23.60;56.30
1175;DHT22;576;48.418;10.074;2023-04-26T08:55:10;23.60;56.20
1175;DHT22;576;48.418;10.074;2023-04-26T08:57:41;23.60;56.20
1175;DHT22;576;48.418;10.074;2023-04-26T09:00:11;23.60;56.20
1175;DHT22;576;48.418;10.074;2023-04-26T09:02:46;23.60;56.10
1175;DHT22;576;48.418;10.074;2023-04-26T09:05:14;23.60;56.10
1175;DHT22;576;48.418;10.074;2023-04-26T09:07:44;23.60;56.10
1175;DHT22;576;48.418;10.074;2023-04-26T09:10:15;23.60;56.00
1175;DHT22;576;48.418;10.074;2023-04-26T09:12:45;23.60;56.10
1175;DHT22;576;48.418;10.074;2023-04-26T09:15:14;23.60;56.00
1175;DHT22;576;48.418;10.074;2023-04-26T09:17:44;23.60;56.00
1175;DHT22;576;48.418;10.074;2023-04-26T09:20:20;23.60;56.00
1175;DHT22;576;48.418;10.074;2023-04-26T09:22:49;23.60;55.90
1175;DHT22;576;48.418;10.074;2023-04-26T09:25:27;23.60;55.80
1175;DHT22;576;48.418;10.074;2023-04-26T09:27:56;23.60;56.10
1175;DHT22;576;48.418;10.074;2023-04-26T09:30:25;23.60;56.20
1175;DHT22;576;48.418;10.074;2023-04-26T09:32:56;23.60;56.30
1175;DHT22;576;48.418;10.074;2023-04-26T09:35:27;23.60;56.40
1175;DHT22;576;48.418;10.074;2023-04-26T09:37:57;23.70;56.40
1175;DHT22;576;48.418;10.074;2023-04-26T09:40:36;23.70;56.40
1175;DHT22;576;48.418;10.074;2023-04-26T09:43:07;23.80;56.40
1175;DHT22;576;48.418;10.074;2023-04-26T09:45:45;23.80;56.40
1175;DHT22;576;48.418;10.074;2023-04-26T09:48:18;23.80;56.40
1175;DHT22;576;48.418;10.074;2023-04-26T09:50:50;23.80;56.40
1175;DHT22;576;48.418;10.074;2023-04-26T09:53:27;23.80;56.40
1175;DHT22;576;48.418;10.074;2023-04-26T09:55:57;23.80;56.50
1175;DHT22;576;48.418;10.074;2023-04-26T09:58:32;23.80;56.40
1175;DHT22;576;48.418;10.074;2023-04-26T10:01:02;23.80;56.40
1175;DHT22;576;48.418;10.074;2023-04-26T10:03:33;23.80;56.40
1175;DHT22;576;48.418;10.074;2023-04-26T10:06:02;23.80;56.50
1175;DHT22;576;48.418;10.074;2023-04-26T10:08:31;23.90;56.60
1175;DHT22;576;48.418;10.074;2023-04-26T10:11:02;23.90;56.60
1175;DHT22;576;48.418;10.074;2023-04-26T10:13:31;23.90;56.60
1175;DHT22;576;48.418;10.074;2023-04-26T10:15:59;23.90;56.50
1175;DHT22;576;48.418;10.074;2023-04-26T10:18:28;23.90;56.00
1175;DHT22;576;48.418;10.074;2023-04-26T10:21:01;23.80;55.80
1175;DHT22;576;48.418;10.074;2023-04-26T10:23:32;23.80;55.80
1175;DHT22;576;48.418;10.074;2023-04-26T10:26:00;23.80;55.70
1175;DHT22;576;48.418;10.074;2023-04-26T10:28:53;23.80;55.70
1175;DHT22;576;48.418;10.074;2023-04-26T10:34:31;23.70;55.70
1175;DHT22;576;48.418;10.074;2023-04-26T10:37:08;23.70;55.80
1175;DHT22;576;48.418;10.074;2023-04-26T10:39:36;23.70;55.90
1175;DHT22;576;48.418;10.074;2023-04-26T10:42:19;23.70;55.90
1175;DHT22;576;48.418;10.074;2023-04-26T10:44:52;23.70;56.00
1175;DHT22;576;48.418;10.074;2023-04-26T10:47:22;23.60;56.10
1175;DHT22;576;48.418;10.074;2023-04-26T10:49:50;23.60;56.10
1175;DHT22;576;48.418;10.074;2023-04-26T10:52:20;23.60;56.00
1175;DHT22;576;48.418;10.074;2023-04-26T10:54:51;23.60;56.00
1175;DHT22;576;48.418;10.074;2023-04-26T10:57:21;23.60;56.00
1175;DHT22;576;48.418;10.074;2023-04-26T11:00:27;23.60;55.90
1175;DHT22;576;48.418;10.074;2023-04-26T11:03:05;23.60;55.90
1175;DHT22;576;48.418;10.074;2023-04-26T11:08:27;23.70;55.90
1175;DHT22;576;48.418;10.074;2023-04-26T11:10:58;23.70;55.90
1175;DHT22;576;48.418;10.074;2023-04-26T11:13:32;23.70;55.80
1175;DHT22;576;48.418;10.074;2023-04-26T11:16:02;23.80;55.90
1175;DHT22;576;48.418;10.074;2023-04-26T11:18:32;23.80;55.90
1175;DHT22;576;48.418;10.074;2023-04-26T11:21:00;23.80;55.90
1175;DHT22;576;48.418;10.074;2023-04-26T11:23:30;23.80;55.90
1175;DHT22;576;48.418;10.074;2023-04-26T11:25:59;23.80;55.90
1175;DHT22;576;48.418;10.074;2023-04-26T11:28:29;23.80;56.00
1175;DHT22;576;48.418;10.074;2023-04-26T11:31:00;23.80;56.00
1175;DHT22;576;48.418;10.074;2023-04-26T11:33:30;23.80;56.20
1175;DHT22;576;48.418;10.074;2023-04-26T11:36:00;23.80;56.30
1175;DHT22;576;48.418;10.074;2023-04-26T11:38:30;23.80;56.40
1175;DHT22;576;48.418;10.074;2023-04-26T11:41:00;23.70;56.50
1175;DHT22;576;48.418;10.074;2023-04-26T11:43:32;23.70;56.50
1175;DHT22;576;48.418;10.074;2023-04-26T11:46:02;23.70;56.60
1175;DHT22;576;48.418;10.074;2023-04-26T11:48:31;23.80;56.60
1175;DHT22;576;48.418;10.074;2023-04-26T11:51:02;23.80;56.50
1175;DHT22;576;48.418;10.074;2023-04-26T11:53:36;23.80;56.50
1175;DHT22;576;48.418;10.074;2023-04-26T11:56:12;23.80;56.60
1175;DHT22;576;48.418;10.074;2023-04-26T11:58:44;23.90;56.60
1175;DHT22;576;48.418;10.074;2023-04-26T12:01:19;24.00;56.50
1175;DHT22;576;48.418;10.074;2023-04-26T12:03:50;24.10;56.40
1175;DHT22;576;48.418;10.074;2023-04-26T12:06:19;24.10;56.30
1175;DHT22;576;48.418;10.074;2023-04-26T12:08:52;24.10;56.40
1175;DHT22;576;48.418;10.074;2023-04-26T12:11:20;24.20;56.40
1175;DHT22;576;48.418;10.074;2023-04-26T12:13:48;24.30;56.30
1175;DHT22;576;48.418;10.074;2023-04-26T12:16:16;24.40;56.20
1175;DHT22;576;48.418;10.074;2023-04-26T12:18:53;24.50;56.00
1175;DHT22;576;48.418;10.074;2023-04-26T12:21:23;24.60;55.90
1175;DHT22;576;48.418;10.074;2023-04-26T12:23:58;24.60;55.90
1175;DHT22;576;48.418;10.074;2023-04-26T12:26:42;24.60;55.90
1175;DHT22;576;48.418;10.074;2023-04-26T12:29:11;24.70;56.00
1175;DHT22;576;48.418;10.074;2023-04-26T12:31:39;24.70;56.00
1175;DHT22;576;48.418;10.074;2023-04-26T12:34:09;24.80;55.90
1175;DHT22;576;48.418;10.074;2023-04-26T12:36:39;24.80;55.80
1175;DHT22;576;48.418;10.074;2023-04-26T12:39:11;24.80;55.90
1175;DHT22;576;48.418;10.074;2023-04-26T12:41:42;24.80;56.00
1175;DHT22;576;48.418;10.074;2023-04-26T12:44:12;24.80;56.00
1175;DHT22;576;48.418;10.074;2023-04-26T12:46:40;24.70;56.00
1175;DHT22;576;48.418;10.074;2023-04-26T12:49:09;24.70;56.10
1175;DHT22;576;48.418;10.074;2023-04-26T12:51:37;24.70;56.20
1175;DHT22;576;48.418;10.074;2023-04-26T12:54:06;24.60;56.10
1175;DHT22;576;48.418;10.074;2023-04-26T12:56:36;24.60;56.00
1175;DHT22;576;48.418;10.074;2023-04-26T12:59:09;24.60;56.00
1175;DHT22;576;48.418;10.074;2023-04-26T13:01:37;24.60;56.00
1175;DHT22;576;48.418;10.074;2023-04-26T13:04:06;24.60;56.00
1175;DHT22;576;48.418;10.074;2023-04-26T13:06:35;24.60;56.00
1175;DHT22;576;48.418;10.074;2023-04-26T13:09:03;24.70;56.10
1175;DHT22;576;48.418;10.074;2023-04-26T13:11:35;24.70;56.10
1175;DHT22;576;48.418;10.074;2023-04-26T13:14:04;24.80;56.00
1175;DHT22;576;48.418;10.074;2023-04-26T13:16:34;24.90;55.90
1175;DHT22;576;48.418;10.074;2023-04-26T13:19:03;25.00;55.80
1175;DHT22;576;48.418;10.074;2023-04-26T13:21:32;25.00;55.70
1175;DHT22;576;48.418;10.074;2023-04-26T13:24:01;25.00;55.50
1175;DHT22;576;48.418;10.074;2023-04-26T13:26:30;25.00;55.50
1175;DHT22;576;48.418;10.074;2023-04-26T13:29:00;25.10;55.50
1175;DHT22;576;48.418;10.074;2023-04-26T13:31:30;25.10;55.40
1175;DHT22;576;48.418;10.074;2023-04-26T13:33:59;25.10;55.20
1175;DHT22;576;48.418;10.074;2023-04-26T13:36:28;25.10;55.10
1175;DHT22;576;48.418;10.074;2023-04-26T13:38:56;25.10;55.00
1175;DHT22;576;48.418;10.074;2023-04-26T13:41:25;25.00;55.00
1175;DHT22;576;48.418;10.074;2023-04-26T13:44:01;25.00;54.90
1175;DHT22;576;48.418;10.074;2023-04-26T13:46:31;24.90;55.10
1175;DHT22;576;48.418;10.074;2023-04-26T13:48:59;24.90;55.30
1175;DHT22;576;48.418;10.074;2023-04-26T13:51:28;24.90;55.50
1175;DHT22;576;48.418;10.074;2023-04-26T13:53:58;24.90;55.60
1175;DHT22;576;48.418;10.074;2023-04-26T13:56:27;25.00;55.60
1175;DHT22;576;48.418;10.074;2023-04-26T13:58:56;25.00;55.70
1175;DHT22;576;48.418;10.074;2023-04-26T14:01:28;25.00;55.80
1175;DHT22;576;48.418;10.074;2023-04-26T14:03:57;25.00;55.80
1175;DHT22;576;48.418;10.074;2023-04-26T14:06:26;25.10;56.00
1175;DHT22;576;48.418;10.074;2023-04-26T14:08:55;25.10;56.00
1175;DHT22;576;48.418;10.074;2023-04-26T14:11:24;25.10;56.00
1175;DHT22;576;48.418;10.074;2023-04-26T14:13:53;25.10;56.10
1175;DHT22;576;48.418;10.074;2023-04-26T14:16:23;25.10;56.10
1175;DHT22;576;48.418;10.074;2023-04-26T14:18:54;25.10;56.20
1175;DHT22;576;48.418;10.074;2023-04-26T14:21:25;25.10;56.30
1175;DHT22;576;48.418;10.074;2023-04-26T14:23:54;25.10;56.40
1175;DHT22;576;48.418;10.074;2023-04-26T14:26:24;25.10;56.40
1175;DHT22;576;48.418;10.074;2023-04-26T14:28:53;25.10;56.40
1175;DHT22;576;48.418;10.074;2023-04-26T14:31:22;25.10;56.50
1175;DHT22;576;48.418;10.074;2023-04-26T14:33:51;25.10;56.60
1175;DHT22;576;48.418;10.074;2023-04-26T14:36:21;25.10;56.60
1175;DHT22;576;48.418;10.074;2023-04-26T14:38:50;25.10;56.70
1175;DHT22;576;48.418;10.074;2023-04-26T14:41:19;25.00;56.70
1175;DHT22;576;48.418;10.074;2023-04-26T14:43:49;25.00;56.70
1175;DHT22;576;48.418;10.074;2023-04-26T14:46:17;25.00;56.80
1175;DHT22;576;48.418;10.074;2023-04-26T14:48:46;25.10;56.70
1175;DHT22;576;48.418;10.074;2023-04-26T14:51:16;25.10;56.80
1175;DHT22;576;48.418;10.074;2023-04-26T14:53:46;25.20;56.00
1175;DHT22;576;48.418;10.074;2023-04-26T14:56:14;25.10;55.50
1175;DHT22;576;48.418;10.074;2023-04-26T14:58:42;25.10;55.50
1175;DHT22;576;48.418;10.074;2023-04-26T15:01:11;25.10;55.80
1175;DHT22;576;48.418;10.074;2023-04-26T15:03:40;25.00;55.80
1175;DHT22;576;48.418;10.074;2023-04-26T15:06:09;25.00;55.70
1175;DHT22;576;48.418;10.074;2023-04-26T15:08:37;25.00;55.60
1175;DHT22;576;48.418;10.074;2023-04-26T15:11:07;24.90;55.60
1175;DHT22;576;48.418;10.074;2023-04-26T15:13:35;24.80;55.90
1175;DHT22;576;48.418;10.074;2023-04-26T15:16:04;24.80;56.00
1175;DHT22;576;48.418;10.074;2023-04-26T15:18:34;24.80;56.10
1175;DHT22;576;48.418;10.074;2023-04-26T15:21:02;24.70;56.30
1175;DHT22;576;48.418;10.074;2023-04-26T15:23:31;24.70;56.30
1175;DHT22;576;48.418;10.074;2023-04-26T15:26:01;24.70;56.30
1175;DHT22;576;48.418;10.074;2023-04-26T15:31:51;24.60;56.30
1175;DHT22;576;48.418;10.074;2023-04-26T15:34:19;24.60;56.60
1175;DHT22;576;48.418;10.074;2023-04-26T15:36:49;24.60;56.60
1175;DHT22;576;48.418;10.074;2023-04-26T15:39:17;24.60;56.50
1175;DHT22;576;48.418;10.074;2023-04-26T15:41:45;24.70;56.60
1175;DHT22;576;48.418;10.074;2023-04-26T15:44:13;24.70;56.40
1175;DHT22;576;48.418;10.074;2023-04-26T15:46:42;24.80;56.30
1175;DHT22;576;48.418;10.074;2023-04-26T15:49:11;24.80;56.40
1175;DHT22;576;48.418;10.074;2023-04-26T15:51:39;24.80;56.40
1175;DHT22;576;48.418;10.074;2023-04-26T15:54:08;24.80;56.40
1175;DHT22;576;48.418;10.074;2023-04-26T15:56:36;24.80;56.40
1175;DHT22;576;48.418;10.074;2023-04-26T15:59:04;24.90;56.40
1175;DHT22;576;48.418;10.074;2023-04-26T16:01:32;24.90;56.30
1175;DHT22;576;48.418;10.074;2023-04-26T16:04:00;24.90;56.20
1175;DHT22;576;48.418;10.074;2023-04-26T16:06:30;24.90;56.00
1175;DHT22;576;48.418;10.074;2023-04-26T16:08:59;24.90;55.90
1175;DHT22;576;48.418;10.074;2023-04-26T16:11:28;24.90;55.90
1175;DHT22;576;48.418;10.074;2023-04-26T16:13:56;24.90;55.80
1175;DHT22;576;48.418;10.074;2023-04-26T16:16:24;24.90;55.80
1175;DHT22;576;48.418;10.074;2023-04-26T16:18:52;24.80;55.70
1175;DHT22;576;48.418;10.074;2023-04-26T16:21:20;24.80;55.70
1175;DHT22;576;48.418;10.074;2023-04-26T16:23:50;24.80;55.70
1175;DHT22;576;48.418;10.074;2023-04-26T16:26:18;24.80;55.70